sensor_id;sensor_type;location;lat;lon;timestamp;temperature;humidity
40257;DHT22;25977;45.462;9.210;2023-04-24T00:01:32;18.00;86.50
40257;DHT22;25977;45.462;9.210;2023-04-24T00:03:59;18.00;86.20
40257;DHT22;25977;45.462;9.210;2023-04-24T00:06:27;18.00;85.40
40257;DHT22;25977;45.462;9.210;2023-04-24T00:09:03;18.00;85.70
40257;DHT22;25977;45.462;9.210;2023-04-24T00:11:29;18.00;85.30
40257;DHT22;25977;45.462;9.210;2023-04-24T00:13:55;17.90;84.60
40257;DHT22;25977;45.462;9.210;2023-04-24T00:16:21;18.00;85.10
40257;DHT22;25977;45.462;9.210;2023-04-24T00:18:47;18.00;85.10
40257;DHT22;25977;45.462;9.210;2023-04-24T00:21:18;18.00;84.80
40257;DHT22;25977;45.462;9.210;2023-04-24T00:23:43;18.00;84.60
40257;DHT22;25977;45.462;9.210;2023-04-24T00:26:10;17.90;84.90
40257;DHT22;25977;45.462;9.210;2023-04-24T00:28:35;18.00;84.80
40257;DHT22;25977;45.462;9.210;2023-04-24T00:31:03;18.00;84.90
40257;DHT22;25977;45.462;9.210;2023-04-24T00:33:28;17.70;85.70
40257;DHT22;25977;45.462;9.210;2023-04-24T00:35:54;17.80;85.70
40257;DHT22;25977;45.462;9.210;2023-04-24T00:38:20;17.80;85.60
40257;DHT22;25977;45.462;9.210;2023-04-24T00:40:46;17.80;85.70
40257;DHT22;25977;45.462;9.210;2023-04-24T00:43:12;17.70;85.60
40257;DHT22;25977;45.462;9.210;2023-04-24T00:45:38;17.70;86.10
40257;DHT22;25977;45.462;9.210;2023-04-24T00:48:04;17.70;86.20
40257;DHT22;25977;45.462;9.210;2023-04-24T00:50:30;17.80;86.40
40257;DHT22;25977;45.462;9.210;2023-04-24T00:52:57;17.80;86.40
40257;DHT22;25977;45.462;9.210;2023-04-24T00:55:24;17.70;86.30
40257;DHT22;25977;45.462;9.210;2023-04-24T00:57:50;17.70;86.20
40257;DHT22;25977;45.462;9.210;2023-04-24T01:00:16;17.70;86.10
40257;DHT22;25977;45.462;9.210;2023-04-24T01:02:46;17.80;86.00
40257;DHT22;25977;45.462;9.210;2023-04-24T01:05:13;17.80;85.80
40257;DHT22;25977;45.462;9.210;2023-04-24T01:07:41;17.80;85.30
40257;DHT22;25977;45.462;9.210;2023-04-24T01:10:09;17.80;85.80
40257;DHT22;25977;45.462;9.210;2023-04-24T01:12:35;17.60;85.80
40257;DHT22;25977;45.462;9.210;2023-04-24T01:15:03;17.70;86.20
40257;DHT22;25977;45.462;9.210;2023-04-24T01:17:29;17.70;86.50
40257;DHT22;25977;45.462;9.210;2023-04-24T01:19:55;17.70;86.70
40257;DHT22;25977;45.462;9.210;2023-04-24T01:22:23;17.70;87.10
40257;DHT22;25977;45.462;9.210;2023-04-24T01:24:49;17.70;86.90
40257;DHT22;25977;45.462;9.210;2023-04-24T01:27:15;17.50;87.20
40257;DHT22;25977;45.462;9.210;2023-04-24T01:29:41;17.50;87.50
40257;DHT22;25977;45.462;9.210;2023-04-24T01:32:09;17.30;87.60
40257;DHT22;25977;45.462;9.210;2023-04-24T01:34:35;17.20;88.40
40257;DHT22;25977;45.462;9.210;2023-04-24T01:37:01;17.20;88.50
40257;DHT22;25977;45.462;9.210;2023-04-24T01:39:26;17.00;89.30
40257;DHT22;25977;45.462;9.210;2023-04-24T01:41:54;17.10;89.50
40257;DHT22;25977;45.462;9.210;2023-04-24T01:44:21;17.20;89.40
40257;DHT22;25977;45.462;9.210;2023-04-24T01:46:47;16.90;89.40
40257;DHT22;25977;45.462;9.210;2023-04-24T01:49:12;17.00;89.20
40257;DHT22;25977;45.462;9.210;2023-04-24T01:51:38;16.80;89.50
40257;DHT22;25977;45.462;9.210;2023-04-24T01:54:04;16.90;89.90
40257;DHT22;25977;45.462;9.210;2023-04-24T01:56:33;16.90;89.80
40257;DHT22;25977;45.462;9.210;2023-04-24T01:58:59;16.90;89.80
40257;DHT22;25977;45.462;9.210;2023-04-24T02:01:27;16.80;90.10
40257;DHT22;25977;45.462;9.210;2023-04-24T02:03:53;16.90;90.10
40257;DHT22;25977;45.462;9.210;2023-04-24T02:06:18;16.80;90.30
40257;DHT22;25977;45.462;9.210;2023-04-24T02:08:44;16.90;90.10
40257;DHT22;25977;45.462;9.210;2023-04-24T02:11:09;17.00;90.00
40257;DHT22;25977;45.462;9.210;2023-04-24T02:13:35;17.00;90.10
40257;DHT22;25977;45.462;9.210;2023-04-24T02:16:01;16.90;90.00
40257;DHT22;25977;45.462;9.210;2023-04-24T02:18:27;17.00;90.20
40257;DHT22;25977;45.462;9.210;2023-04-24T02:20:52;17.00;90.20
40257;DHT22;25977;45.462;9.210;2023-04-24T02:23:19;17.10;90.10
40257;DHT22;25977;45.462;9.210;2023-04-24T02:25:45;17.10;90.10
40257;DHT22;25977;45.462;9.210;2023-04-24T02:28:11;17.10;90.10
40257;DHT22;25977;45.462;9.210;2023-04-24T02:30:37;17.20;90.30
40257;DHT22;25977;45.462;9.210;2023-04-24T02:33:02;17.20;90.50
40257;DHT22;25977;45.462;9.210;2023-04-24T02:35:29;17.30;90.30
40257;DHT22;25977;45.462;9.210;2023-04-24T02:37:55;17.10;90.30
40257;DHT22;25977;45.462;9.210;2023-04-24T02:40:21;17.10;90.20
40257;DHT22;25977;45.462;9.210;2023-04-24T02:42:46;17.00;90.30
40257;DHT22;25977;45.462;9.210;2023-04-24T02:45:12;17.00;90.40
40257;DHT22;25977;45.462;9.210;2023-04-24T02:47:38;16.90;90.70
40257;DHT22;25977;45.462;9.210;2023-04-24T02:50:04;16.90;90.80
40257;DHT22;25977;45.462;9.210;2023-04-24T02:52:30;16.80;90.90
40257;DHT22;25977;45.462;9.210;2023-04-24T02:54:56;16.90;90.90
40257;DHT22;25977;45.462;9.210;2023-04-24T02:57:21;16.90;90.90
40257;DHT22;25977;45.462;9.210;2023-04-24T02:59:47;16.90;91.00
40257;DHT22;25977;45.462;9.210;2023-04-24T03:02:19;16.90;90.90
40257;DHT22;25977;45.462;9.210;2023-04-24T03:04:46;16.90;90.80
40257;DHT22;25977;45.462;9.210;2023-04-24T03:07:13;16.90;90.80
40257;DHT22;25977;45.462;9.210;2023-04-24T03:09:40;17.00;90.80
40257;DHT22;25977;45.462;9.210;2023-04-24T03:12:06;17.00;90.80
40257;DHT22;25977;45.462;9.210;2023-04-24T03:14:32;17.00;90.80
40257;DHT22;25977;45.462;9.210;2023-04-24T03:16:58;17.00;90.20
40257;DHT22;25977;45.462;9.210;2023-04-24T03:19:23;17.00;90.10
40257;DHT22;25977;45.462;9.210;2023-04-24T03:22:09;17.00;90.20
40257;DHT22;25977;45.462;9.210;2023-04-24T03:24:36;16.90;89.70
40257;DHT22;25977;45.462;9.210;2023-04-24T03:27:03;16.80;90.00
40257;DHT22;25977;45.462;9.210;2023-04-24T03:29:49;16.90;90.00
40257;DHT22;25977;45.462;9.210;2023-04-24T03:32:19;16.80;90.00
40257;DHT22;25977;45.462;9.210;2023-04-24T03:34:46;16.80;89.90
40257;DHT22;25977;45.462;9.210;2023-04-24T03:37:14;16.80;89.90
40257;DHT22;25977;45.462;9.210;2023-04-24T03:39:45;16.80;89.90
40257;DHT22;25977;45.462;9.210;2023-04-24T03:42:11;16.90;89.90
40257;DHT22;25977;45.462;9.210;2023-04-24T03:44:48;16.90;89.70
40257;DHT22;25977;45.462;9.210;2023-04-24T03:47:13;16.90;89.50
40257;DHT22;25977;45.462;9.210;2023-04-24T03:49:40;16.80;89.40
40257;DHT22;25977;45.462;9.210;2023-04-24T03:52:05;16.70;89.40
40257;DHT22;25977;45.462;9.210;2023-04-24T03:54:31;16.80;89.10
40257;DHT22;25977;45.462;9.210;2023-04-24T03:56:58;16.80;89.30
40257;DHT22;25977;45.462;9.210;2023-04-24T03:59:26;16.80;89.60
40257;DHT22;25977;45.462;9.210;2023-04-24T04:02:05;16.80;89.90
40257;DHT22;25977;45.462;9.210;2023-04-24T04:04:31;16.80;90.00
40257;DHT22;25977;45.462;9.210;2023-04-24T04:06:56;16.80;90.00
40257;DHT22;25977;45.462;9.210;2023-04-24T04:09:26;16.80;89.90
40257;DHT22;25977;45.462;9.210;2023-04-24T04:11:52;16.80;89.80
40257;DHT22;25977;45.462;9.210;2023-04-24T04:14:18;16.80;90.00
40257;DHT22;25977;45.462;9.210;2023-04-24T04:16:47;16.80;90.10
40257;DHT22;25977;45.462;9.210;2023-04-24T04:19:13;16.80;90.00
40257;DHT22;25977;45.462;9.210;2023-04-24T04:21:39;16.80;90.00
40257;DHT22;25977;45.462;9.210;2023-04-24T04:24:14;16.80;89.80
40257;DHT22;25977;45.462;9.210;2023-04-24T04:26:43;16.80;89.10
40257;DHT22;25977;45.462;9.210;2023-04-24T04:29:16;16.80;89.00
40257;DHT22;25977;45.462;9.210;2023-04-24T04:31:44;16.80;88.70
40257;DHT22;25977;45.462;9.210;2023-04-24T04:34:12;16.80;88.30
40257;DHT22;25977;45.462;9.210;2023-04-24T04:36:41;16.80;88.10
40257;DHT22;25977;45.462;9.210;2023-04-24T04:39:25;16.70;88.00
40257;DHT22;25977;45.462;9.210;2023-04-24T04:41:56;16.70;88.30
40257;DHT22;25977;45.462;9.210;2023-04-24T04:44:28;16.70;88.40
40257;DHT22;25977;45.462;9.210;2023-04-24T04:46:56;16.70;88.50
40257;DHT22;25977;45.462;9.210;2023-04-24T04:49:26;16.70;88.80
40257;DHT22;25977;45.462;9.210;2023-04-24T04:51:53;16.60;88.70
40257;DHT22;25977;45.462;9.210;2023-04-24T04:54:20;16.70;88.70
40257;DHT22;25977;45.462;9.210;2023-04-24T04:56:45;16.70;88.60
40257;DHT22;25977;45.462;9.210;2023-04-24T04:59:11;16.70;88.30
40257;DHT22;25977;45.462;9.210;2023-04-24T05:01:38;16.80;88.30
40257;DHT22;25977;45.462;9.210;2023-04-24T05:04:06;16.70;88.00
40257;DHT22;25977;45.462;9.210;2023-04-24T05:06:31;16.50;88.00
40257;DHT22;25977;45.462;9.210;2023-04-24T05:08:58;16.60;88.20
40257;DHT22;25977;45.462;9.210;2023-04-24T05:11:31;16.50;88.00
40257;DHT22;25977;45.462;9.210;2023-04-24T05:13:58;16.60;87.70
40257;DHT22;25977;45.462;9.210;2023-04-24T05:16:32;16.70;87.80
40257;DHT22;25977;45.462;9.210;2023-04-24T05:18:58;16.70;87.80
40257;DHT22;25977;45.462;9.210;2023-04-24T05:21:29;16.70;87.60
40257;DHT22;25977;45.462;9.210;2023-04-24T05:23:55;16.70;87.80
40257;DHT22;25977;45.462;9.210;2023-04-24T05:26:39;16.60;87.70
40257;DHT22;25977;45.462;9.210;2023-04-24T05:29:07;16.70;87.70
40257;DHT22;25977;45.462;9.210;2023-04-24T05:31:32;16.80;87.60
40257;DHT22;25977;45.462;9.210;2023-04-24T05:33:58;16.80;87.60
40257;DHT22;25977;45.462;9.210;2023-04-24T05:36:25;16.90;87.40
40257;DHT22;25977;45.462;9.210;2023-04-24T05:38:50;16.90;87.30
40257;DHT22;25977;45.462;9.210;2023-04-24T05:41:16;16.90;86.90
40257;DHT22;25977;45.462;9.210;2023-04-24T05:43:42;16.90;86.80
40257;DHT22;25977;45.462;9.210;2023-04-24T05:46:07;17.00;86.80
40257;DHT22;25977;45.462;9.210;2023-04-24T05:48:33;17.10;86.70
40257;DHT22;25977;45.462;9.210;2023-04-24T05:51:01;17.20;86.30
40257;DHT22;25977;45.462;9.210;2023-04-24T05:53:27;17.50;85.20
40257;DHT22;25977;45.462;9.210;2023-04-24T05:55:53;18.00;83.90
40257;DHT22;25977;45.462;9.210;2023-04-24T05:58:19;18.50;82.00
40257;DHT22;25977;45.462;9.210;2023-04-24T06:00:47;19.10;79.80
40257;DHT22;25977;45.462;9.210;2023-04-24T06:03:14;19.70;78.30
40257;DHT22;25977;45.462;9.210;2023-04-24T06:05:40;20.40;76.70
40257;DHT22;25977;45.462;9.210;2023-04-24T06:08:06;21.10;74.60
40257;DHT22;25977;45.462;9.210;2023-04-24T06:10:35;21.70;72.60
40257;DHT22;25977;45.462;9.210;2023-04-24T06:13:01;22.30;69.80
40257;DHT22;25977;45.462;9.210;2023-04-24T06:15:29;22.90;68.70
40257;DHT22;25977;45.462;9.210;2023-04-24T06:18:11;23.50;66.40
40257;DHT22;25977;45.462;9.210;2023-04-24T06:20:39;23.50;65.00
40257;DHT22;25977;45.462;9.210;2023-04-24T06:23:08;24.10;64.00
40257;DHT22;25977;45.462;9.210;2023-04-24T06:25:33;24.50;63.20
40257;DHT22;25977;45.462;9.210;2023-04-24T06:27:59;24.90;62.10
40257;DHT22;25977;45.462;9.210;2023-04-24T06:30:25;25.10;61.60
40257;DHT22;25977;45.462;9.210;2023-04-24T06:32:51;25.50;61.10
40257;DHT22;25977;45.462;9.210;2023-04-24T06:35:16;25.60;60.80
40257;DHT22;25977;45.462;9.210;2023-04-24T06:37:42;25.70;60.70
40257;DHT22;25977;45.462;9.210;2023-04-24T06:40:09;25.70;60.60
40257;DHT22;25977;45.462;9.210;2023-04-24T06:42:35;25.70;60.00
40257;DHT22;25977;45.462;9.210;2023-04-24T06:45:03;25.50;59.80
40257;DHT22;25977;45.462;9.210;2023-04-24T06:47:29;25.30;60.00
40257;DHT22;25977;45.462;9.210;2023-04-24T06:49:55;25.30;60.30
40257;DHT22;25977;45.462;9.210;2023-04-24T06:52:21;25.30;59.70
40257;DHT22;25977;45.462;9.210;2023-04-24T06:54:46;25.60;59.70
40257;DHT22;25977;45.462;9.210;2023-04-24T06:57:12;25.60;59.60
40257;DHT22;25977;45.462;9.210;2023-04-24T06:59:38;26.00;58.60
40257;DHT22;25977;45.462;9.210;2023-04-24T07:02:03;26.30;58.40
40257;DHT22;25977;45.462;9.210;2023-04-24T07:04:30;26.60;57.60
40257;DHT22;25977;45.462;9.210;2023-04-24T07:06:56;26.70;57.70
40257;DHT22;25977;45.462;9.210;2023-04-24T07:09:24;26.80;57.60
40257;DHT22;25977;45.462;9.210;2023-04-24T07:11:51;26.70;57.00
40257;DHT22;25977;45.462;9.210;2023-04-24T07:14:17;25.30;57.80
40257;DHT22;25977;45.462;9.210;2023-04-24T07:16:43;24.80;59.40
40257;DHT22;25977;45.462;9.210;2023-04-24T07:19:10;24.70;59.90
40257;DHT22;25977;45.462;9.210;2023-04-24T07:21:35;24.30;60.50
40257;DHT22;25977;45.462;9.210;2023-04-24T07:24:01;24.10;61.20
40257;DHT22;25977;45.462;9.210;2023-04-24T07:26:29;23.90;61.60
40257;DHT22;25977;45.462;9.210;2023-04-24T07:28:55;23.70;61.40
40257;DHT22;25977;45.462;9.210;2023-04-24T07:31:21;23.30;61.90
40257;DHT22;25977;45.462;9.210;2023-04-24T07:33:47;23.00;62.40
40257;DHT22;25977;45.462;9.210;2023-04-24T07:36:13;22.70;64.00
40257;DHT22;25977;45.462;9.210;2023-04-24T07:38:42;22.60;63.80
40257;DHT22;25977;45.462;9.210;2023-04-24T07:41:08;22.60;64.40
40257;DHT22;25977;45.462;9.210;2023-04-24T07:43:34;22.70;64.70
40257;DHT22;25977;45.462;9.210;2023-04-24T07:46:00;22.80;64.20
40257;DHT22;25977;45.462;9.210;2023-04-24T07:48:26;22.90;63.50
40257;DHT22;25977;45.462;9.210;2023-04-24T07:50:52;23.10;63.80
40257;DHT22;25977;45.462;9.210;2023-04-24T07:53:18;23.10;63.40
40257;DHT22;25977;45.462;9.210;2023-04-24T07:55:44;23.20;63.40
40257;DHT22;25977;45.462;9.210;2023-04-24T07:58:10;23.30;63.60
40257;DHT22;25977;45.462;9.210;2023-04-24T08:00:36;23.30;63.40
40257;DHT22;25977;45.462;9.210;2023-04-24T08:03:01;23.20;63.30
40257;DHT22;25977;45.462;9.210;2023-04-24T08:05:27;23.20;63.30
40257;DHT22;25977;45.462;9.210;2023-04-24T08:07:54;23.20;62.20
40257;DHT22;25977;45.462;9.210;2023-04-24T08:10:21;23.10;62.20
40257;DHT22;25977;45.462;9.210;2023-04-24T08:12:47;23.20;61.70
40257;DHT22;25977;45.462;9.210;2023-04-24T08:15:13;23.10;60.70
40257;DHT22;25977;45.462;9.210;2023-04-24T08:17:38;22.70;61.80
40257;DHT22;25977;45.462;9.210;2023-04-24T08:20:04;22.80;62.20
40257;DHT22;25977;45.462;9.210;2023-04-24T08:22:30;22.80;62.30
40257;DHT22;25977;45.462;9.210;2023-04-24T08:24:57;22.80;62.30
40257;DHT22;25977;45.462;9.210;2023-04-24T08:27:23;23.00;62.60
40257;DHT22;25977;45.462;9.210;2023-04-24T08:29:49;23.20;62.10
40257;DHT22;25977;45.462;9.210;2023-04-24T08:32:16;23.20;61.40
40257;DHT22;25977;45.462;9.210;2023-04-24T08:34:42;22.80;61.60
40257;DHT22;25977;45.462;9.210;2023-04-24T08:37:07;22.30;63.10
40257;DHT22;25977;45.462;9.210;2023-04-24T08:39:33;22.00;63.70
40257;DHT22;25977;45.462;9.210;2023-04-24T08:41:59;22.10;63.70
40257;DHT22;25977;45.462;9.210;2023-04-24T08:44:32;22.40;63.20
40257;DHT22;25977;45.462;9.210;2023-04-24T08:46:58;22.70;62.50
40257;DHT22;25977;45.462;9.210;2023-04-24T08:49:25;22.90;61.40
40257;DHT22;25977;45.462;9.210;2023-04-24T08:51:52;23.10;61.10
40257;DHT22;25977;45.462;9.210;2023-04-24T08:54:18;23.20;60.30
40257;DHT22;25977;45.462;9.210;2023-04-24T08:56:45;23.30;60.10
40257;DHT22;25977;45.462;9.210;2023-04-24T08:59:14;23.40;59.90
40257;DHT22;25977;45.462;9.210;2023-04-24T09:01:41;23.50;59.50
40257;DHT22;25977;45.462;9.210;2023-04-24T09:04:08;23.50;59.40
40257;DHT22;25977;45.462;9.210;2023-04-24T09:06:38;23.00;58.90
40257;DHT22;25977;45.462;9.210;2023-04-24T09:09:04;23.00;60.20
40257;DHT22;25977;45.462;9.210;2023-04-24T09:11:31;23.00;60.10
40257;DHT22;25977;45.462;9.210;2023-04-24T09:14:01;22.80;60.30
40257;DHT22;25977;45.462;9.210;2023-04-24T09:16:26;22.90;60.50
40257;DHT22;25977;45.462;9.210;2023-04-24T09:18:53;23.00;60.40
40257;DHT22;25977;45.462;9.210;2023-04-24T09:21:21;23.10;60.20
40257;DHT22;25977;45.462;9.210;2023-04-24T09:23:58;23.20;60.20
40257;DHT22;25977;45.462;9.210;2023-04-24T09:26:24;23.20;59.10
40257;DHT22;25977;45.462;9.210;2023-04-24T09:28:50;23.30;59.20
40257;DHT22;25977;45.462;9.210;2023-04-24T09:31:19;23.40;59.20
40257;DHT22;25977;45.462;9.210;2023-04-24T09:36:43;23.50;59.50
40257;DHT22;25977;45.462;9.210;2023-04-24T09:39:13;23.50;59.80
40257;DHT22;25977;45.462;9.210;2023-04-24T09:41:53;23.60;59.70
40257;DHT22;25977;45.462;9.210;2023-04-24T09:44:21;23.50;60.10
40257;DHT22;25977;45.462;9.210;2023-04-24T09:46:56;23.50;60.40
40257;DHT22;25977;45.462;9.210;2023-04-24T09:49:26;23.50;60.30
40257;DHT22;25977;45.462;9.210;2023-04-24T09:52:09;23.50;60.00
40257;DHT22;25977;45.462;9.210;2023-04-24T09:54:36;23.10;60.60
40257;DHT22;25977;45.462;9.210;2023-04-24T09:57:06;23.10;60.70
40257;DHT22;25977;45.462;9.210;2023-04-24T09:59:32;23.20;60.90
40257;DHT22;25977;45.462;9.210;2023-04-24T10:02:00;23.10;61.10
40257;DHT22;25977;45.462;9.210;2023-04-24T10:04:27;23.00;61.70
40257;DHT22;25977;45.462;9.210;2023-04-24T10:06:55;23.00;61.60
40257;DHT22;25977;45.462;9.210;2023-04-24T10:09:24;23.00;61.80
40257;DHT22;25977;45.462;9.210;2023-04-24T10:11:52;23.10;61.60
40257;DHT22;25977;45.462;9.210;2023-04-24T10:14:23;23.10;61.70
40257;DHT22;25977;45.462;9.210;2023-04-24T10:16:50;23.20;61.60
40257;DHT22;25977;45.462;9.210;2023-04-24T10:19:18;23.20;60.50
40257;DHT22;25977;45.462;9.210;2023-04-24T10:21:45;23.30;60.30
40257;DHT22;25977;45.462;9.210;2023-04-24T10:24:15;23.20;60.10
40257;DHT22;25977;45.462;9.210;2023-04-24T10:26:41;23.20;60.00
40257;DHT22;25977;45.462;9.210;2023-04-24T10:29:07;23.30;59.90
40257;DHT22;25977;45.462;9.210;2023-04-24T10:31:36;23.30;59.40
40257;DHT22;25977;45.462;9.210;2023-04-24T10:34:06;23.30;58.80
40257;DHT22;25977;45.462;9.210;2023-04-24T10:36:39;23.30;59.30
40257;DHT22;25977;45.462;9.210;2023-04-24T10:39:11;23.30;59.10
40257;DHT22;25977;45.462;9.210;2023-04-24T10:41:38;23.40;59.10
40257;DHT22;25977;45.462;9.210;2023-04-24T10:44:07;23.30;59.90
40257;DHT22;25977;45.462;9.210;2023-04-24T10:46:33;23.40;58.70
40257;DHT22;25977;45.462;9.210;2023-04-24T10:48:59;23.20;59.00
40257;DHT22;25977;45.462;9.210;2023-04-24T10:51:51;23.00;59.30
40257;DHT22;25977;45.462;9.210;2023-04-24T10:54:29;23.00;59.30
40257;DHT22;25977;45.462;9.210;2023-04-24T11:02:41;22.90;58.90
40257;DHT22;25977;45.462;9.210;2023-04-24T11:05:18;22.90;58.60
40257;DHT22;25977;45.462;9.210;2023-04-24T11:08:09;22.90;58.70
40257;DHT22;25977;45.462;9.210;2023-04-24T11:13:28;22.90;58.70
40257;DHT22;25977;45.462;9.210;2023-04-24T11:16:26;23.00;58.80
40257;DHT22;25977;45.462;9.210;2023-04-24T11:19:07;23.00;58.10
40257;DHT22;25977;45.462;9.210;2023-04-24T11:21:49;23.00;58.30
40257;DHT22;25977;45.462;9.210;2023-04-24T11:24:49;23.00;58.10
40257;DHT22;25977;45.462;9.210;2023-04-24T11:27:22;23.00;57.30
40257;DHT22;25977;45.462;9.210;2023-04-24T11:34:59;23.00;57.40
40257;DHT22;25977;45.462;9.210;2023-04-24T11:37:39;22.80;58.10
40257;DHT22;25977;45.462;9.210;2023-04-24T11:40:08;23.00;57.50
40257;DHT22;25977;45.462;9.210;2023-04-24T11:42:42;23.00;57.90
40257;DHT22;25977;45.462;9.210;2023-04-24T11:45:10;23.10;58.30
40257;DHT22;25977;45.462;9.210;2023-04-24T11:47:36;23.10;58.90
40257;DHT22;25977;45.462;9.210;2023-04-24T11:50:04;23.10;58.60
40257;DHT22;25977;45.462;9.210;2023-04-24T11:52:30;23.10;59.10
40257;DHT22;25977;45.462;9.210;2023-04-24T11:54:56;23.10;58.60
40257;DHT22;25977;45.462;9.210;2023-04-24T11:57:24;23.10;58.50
40257;DHT22;25977;45.462;9.210;2023-04-24T11:59:51;23.10;58.70
40257;DHT22;25977;45.462;9.210;2023-04-24T12:02:24;23.00;57.80
40257;DHT22;25977;45.462;9.210;2023-04-24T12:04:54;22.90;57.40
40257;DHT22;25977;45.462;9.210;2023-04-24T12:07:20;23.00;57.80
40257;DHT22;25977;45.462;9.210;2023-04-24T12:09:47;23.00;57.50
40257;DHT22;25977;45.462;9.210;2023-04-24T12:12:14;23.10;58.60
40257;DHT22;25977;45.462;9.210;2023-04-24T12:14:46;23.10;58.50
40257;DHT22;25977;45.462;9.210;2023-04-24T12:17:12;23.20;58.20
40257;DHT22;25977;45.462;9.210;2023-04-24T12:19:45;23.20;58.40
40257;DHT22;25977;45.462;9.210;2023-04-24T12:22:11;23.10;57.30
40257;DHT22;25977;45.462;9.210;2023-04-24T12:24:59;23.10;58.10
40257;DHT22;25977;45.462;9.210;2023-04-24T12:27:28;23.20;57.60
40257;DHT22;25977;45.462;9.210;2023-04-24T12:29:57;23.30;56.80
40257;DHT22;25977;45.462;9.210;2023-04-24T12:32:23;23.30;55.80
40257;DHT22;25977;45.462;9.210;2023-04-24T12:34:51;23.40;55.40
40257;DHT22;25977;45.462;9.210;2023-04-24T12:37:17;23.40;55.00
40257;DHT22;25977;45.462;9.210;2023-04-24T12:42:29;23.40;54.20
40257;DHT22;25977;45.462;9.210;2023-04-24T12:45:00;23.50;53.90
40257;DHT22;25977;45.462;9.210;2023-04-24T12:47:27;23.50;55.60
40257;DHT22;25977;45.462;9.210;2023-04-24T12:49:53;23.50;57.10
40257;DHT22;25977;45.462;9.210;2023-04-24T12:52:21;23.60;57.40
40257;DHT22;25977;45.462;9.210;2023-04-24T12:54:47;23.60;54.90
40257;DHT22;25977;45.462;9.210;2023-04-24T12:57:12;23.60;54.80
40257;DHT22;25977;45.462;9.210;2023-04-24T12:59:38;23.70;55.20
40257;DHT22;25977;45.462;9.210;2023-04-24T13:02:05;23.70;55.00
40257;DHT22;25977;45.462;9.210;2023-04-24T13:04:31;23.80;54.90
40257;DHT22;25977;45.462;9.210;2023-04-24T13:06:57;23.90;55.10
40257;DHT22;25977;45.462;9.210;2023-04-24T13:09:23;23.90;55.20
40257;DHT22;25977;45.462;9.210;2023-04-24T13:11:49;24.00;55.20
40257;DHT22;25977;45.462;9.210;2023-04-24T13:14:15;24.00;54.60
40257;DHT22;25977;45.462;9.210;2023-04-24T13:16:41;24.00;54.00
40257;DHT22;25977;45.462;9.210;2023-04-24T13:19:07;24.10;52.50
40257;DHT22;25977;45.462;9.210;2023-04-24T13:21:32;24.10;53.00
40257;DHT22;25977;45.462;9.210;2023-04-24T13:23:59;24.10;52.40
40257;DHT22;25977;45.462;9.210;2023-04-24T13:26:25;24.10;50.50
40257;DHT22;25977;45.462;9.210;2023-04-24T13:28:50;24.10;49.00
40257;DHT22;25977;45.462;9.210;2023-04-24T13:31:16;24.20;48.50
40257;DHT22;25977;45.462;9.210;2023-04-24T13:33:42;24.10;47.00
40257;DHT22;25977;45.462;9.210;2023-04-24T13:36:08;24.20;48.20
40257;DHT22;25977;45.462;9.210;2023-04-24T13:38:34;24.30;49.20
40257;DHT22;25977;45.462;9.210;2023-04-24T13:41:00;24.30;49.90
40257;DHT22;25977;45.462;9.210;2023-04-24T13:43:25;24.40;49.30
40257;DHT22;25977;45.462;9.210;2023-04-24T13:45:51;24.40;48.20
40257;DHT22;25977;45.462;9.210;2023-04-24T13:48:17;24.50;48.40
40257;DHT22;25977;45.462;9.210;2023-04-24T13:50:43;24.50;48.10
40257;DHT22;25977;45.462;9.210;2023-04-24T13:53:10;24.50;47.70
40257;DHT22;25977;45.462;9.210;2023-04-24T13:55:35;24.50;45.90
40257;DHT22;25977;45.462;9.210;2023-04-24T13:58:02;24.50;42.60
40257;DHT22;25977;45.462;9.210;2023-04-24T14:00:28;24.40;41.90
40257;DHT22;25977;45.462;9.210;2023-04-24T14:02:54;24.30;43.20
40257;DHT22;25977;45.462;9.210;2023-04-24T14:05:19;24.30;45.90
40257;DHT22;25977;45.462;9.210;2023-04-24T14:07:47;24.30;45.60
40257;DHT22;25977;45.462;9.210;2023-04-24T14:10:12;24.30;45.60
40257;DHT22;25977;45.462;9.210;2023-04-24T14:12:38;24.30;45.20
40257;DHT22;25977;45.462;9.210;2023-04-24T14:15:04;24.30;44.90
40257;DHT22;25977;45.462;9.210;2023-04-24T14:17:30;24.20;45.30
40257;DHT22;25977;45.462;9.210;2023-04-24T14:19:56;24.20;45.50
40257;DHT22;25977;45.462;9.210;2023-04-24T14:22:22;24.20;45.10
40257;DHT22;25977;45.462;9.210;2023-04-24T14:24:48;24.00;44.40
40257;DHT22;25977;45.462;9.210;2023-04-24T14:27:14;24.00;44.60
40257;DHT22;25977;45.462;9.210;2023-04-24T14:29:39;24.00;45.30
40257;DHT22;25977;45.462;9.210;2023-04-24T14:32:05;24.00;44.80
40257;DHT22;25977;45.462;9.210;2023-04-24T14:34:30;24.00;44.80
40257;DHT22;25977;45.462;9.210;2023-04-24T14:36:56;24.00;44.40
40257;DHT22;25977;45.462;9.210;2023-04-24T14:39:23;23.90;44.30
40257;DHT22;25977;45.462;9.210;2023-04-24T14:41:48;23.90;44.80
40257;DHT22;25977;45.462;9.210;2023-04-24T14:44:14;23.90;44.90
40257;DHT22;25977;45.462;9.210;2023-04-24T14:46:39;23.90;44.40
40257;DHT22;25977;45.462;9.210;2023-04-24T14:49:05;23.90;43.80
40257;DHT22;25977;45.462;9.210;2023-04-24T14:51:31;23.80;43.90
40257;DHT22;25977;45.462;9.210;2023-04-24T14:53:58;23.80;44.10
40257;DHT22;25977;45.462;9.210;2023-04-24T14:56:23;23.80;44.10
40257;DHT22;25977;45.462;9.210;2023-04-24T14:58:49;23.80;44.10
40257;DHT22;25977;45.462;9.210;2023-04-24T15:01:15;23.70;44.40
40257;DHT22;25977;45.462;9.210;2023-04-24T15:03:41;23.70;44.80
40257;DHT22;25977;45.462;9.210;2023-04-24T15:06:07;23.70;44.90
40257;DHT22;25977;45.462;9.210;2023-04-24T15:08:32;23.70;45.20
40257;DHT22;25977;45.462;9.210;2023-04-24T15:10:58;23.70;44.70
40257;DHT22;25977;45.462;9.210;2023-04-24T15:13:24;23.70;43.70
40257;DHT22;25977;45.462;9.210;2023-04-24T15:15:49;23.70;43.40
40257;DHT22;25977;45.462;9.210;2023-04-24T15:18:15;23.70;42.90
40257;DHT22;25977;45.462;9.210;2023-04-24T15:20:41;23.70;43.10
40257;DHT22;25977;45.462;9.210;2023-04-24T15:23:10;23.60;43.40
40257;DHT22;25977;45.462;9.210;2023-04-24T15:25:36;23.70;43.00
40257;DHT22;25977;45.462;9.210;2023-04-24T15:28:02;23.60;42.90
40257;DHT22;25977;45.462;9.210;2023-04-24T15:30:29;23.60;42.20
40257;DHT22;25977;45.462;9.210;2023-04-24T15:32:55;23.50;40.80
40257;DHT22;25977;45.462;9.210;2023-04-24T15:35:21;23.50;41.40
40257;DHT22;25977;45.462;9.210;2023-04-24T15:37:47;23.50;40.40
40257;DHT22;25977;45.462;9.210;2023-04-24T15:40:13;23.50;41.10
40257;DHT22;25977;45.462;9.210;2023-04-24T15:42:41;23.50;41.30
40257;DHT22;25977;45.462;9.210;2023-04-24T15:45:08;23.40;41.40
40257;DHT22;25977;45.462;9.210;2023-04-24T15:47:34;23.40;41.40
40257;DHT22;25977;45.462;9.210;2023-04-24T15:50:02;23.40;42.10
40257;DHT22;25977;45.462;9.210;2023-04-24T15:52:27;23.40;42.20